This is the latest recevied weather packets stored in our database for station/object SP3TOM-10. If no packets are shown the sender has not sent any weather packets the latest 10 day(s).
| Time | Temp. | Humidity | Pressure | Rain* | Wind** | Luminosity | Snow |
|---|---|---|---|---|---|---|---|
| 1788467707 | 21.11° C | 54% | 1002.8 hPa | - | - | - | - |
| 1788465906 | 21.11° C | 53% | 1002.8 hPa | - | - | - | - |
| 1788464106 | 21.11° C | 52% | 1002.6 hPa | - | - | - | - |
| 1788447902 | 24.44° C | 42% | 1003.7 hPa | - | - | - | - |
| 1788445201 | 23.89° C | 42% | 1004.3 hPa | - | - | - | - |
| 1788442501 | 23.89° C | 41% | 1005 hPa | - | - | - | - |
| 1788441601 | 23.89° C | 43% | 1005.1 hPa | - | - | - | - |
| 1788440701 | 25° C | 42% | 1005 hPa | - | - | - | - |
| 1788439104 | 22.78° C | 48% | 1005.3 hPa | - | - | - | - |
| 1788435351 | 23.89° C | 43% | 1005.7 hPa | - | - | - | - |
| 1788435266 | 23.89° C | 43% | 1005.7 hPa | - | - | - | - |
| 1788435180 | 24.44° C | 42% | 1005.8 hPa | - | - | - | - |
| 1788434815 | 24.44° C | 41% | 1005.8 hPa | - | - | - | - |
| 1788434773 | 24.44° C | 41% | 1005.8 hPa | - | - | - | - |
| 1788434717 | 24.44° C | 41% | 1005.8 hPa | - | - | - | - |
| 1788434570 | 24.44° C | 41% | 1005.8 hPa | - | - | - | - |
| 1788434532 | 25° C | 41% | 1005.8 hPa | - | - | - | - |
| 1788434417 | 25° C | 41% | 1005.9 hPa | - | - | - | - |
| 1788434380 | 25° C | 41% | 1005.8 hPa | - | - | - | - |
| 1788434132 | 25° C | 42% | 1005.9 hPa | - | - | - | - |
| 1788433731 | 24.44° C | 42% | 1006 hPa | - | - | - | - |
| 1788433637 | 24.44° C | 43% | 1006 hPa | - | - | - | - |
| 1788433602 | 24.44° C | 42% | 1005.9 hPa | - | - | - | - |
| 1788433564 | 24.44° C | 43% | 1005.9 hPa | - | - | - | - |
| 1788433501 | 23.89° C | 43% | 1006 hPa | - | - | - | - |
* Rain since midnight (hover to see other rain measurements)
** Current wind speed in m/s (hover to see current wind gust speed)